Time;durP1;ratioP1;P1;durP2;ratioP2;P2;SDS_P1;SDS_P2;PMS_P1;PMS_P2;Temp;Humidity;BMP_temperature;BMP_pressure;BME280_temperature;BME280_humidity;BME280_pressure;Samples;Min_cycle;Max_cycle;Signal;HPM_P1;HPM_P2
2022/05/15 00:02:13;;;;;;;;;;;;;;;;;;5069424;28;20329;-43
2022/05/15 00:04:39;;;;;;;;;;;;;;;;;;5069114;28;19908;-45
2022/05/15 00:07:05;;;;;;;;;;;;;;;;;;5068590;28;19943;-45
2022/05/15 00:09:31;;;;;;;;;;;;;;;;;;5068882;28;20590;-46
2022/05/15 00:11:57;;;;;;;;;;;;;;;;;;5068825;28;19908;-47
2022/05/15 00:14:23;;;;;;;;;;;;;;;;;;5069140;28;19999;-46
2022/05/15 00:16:49;;;;;;;;;;;;;;;;;;5069036;28;19911;-45
2022/05/15 00:19:15;;;;;;;;;;;;;;;;;;5068639;28;19905;-47
2022/05/15 00:21:41;;;;;;;;;;;;;;;;;;5067027;28;19916;-44
2022/05/15 00:24:07;;;;;;;;;;;;;;;;;;5068929;28;19954;-45
2022/05/15 00:26:33;;;;;;;;;;;;;;;;;;5067567;28;19908;-47
2022/05/15 00:28:59;;;;;;;;;;;;;;;;;;5069175;28;19908;-45
2022/05/15 00:31:25;;;;;;;;;;;;;;;;;;5068834;28;20003;-44
2022/05/15 00:33:50;;;;;;;;;;;;;;;;;;5068599;28;20043;-46
2022/05/15 00:36:16;;;;;;;;;;;;;;;;;;5066911;28;19912;-43
2022/05/15 00:38:42;;;;;;;;;;;;;;;;;;5068296;28;19950;-48
2022/05/15 00:41:08;;;;;;;;;;;;;;;;;;5068347;28;20015;-47
2022/05/15 00:43:34;;;;;;;;;;;;;;;;;;5068101;28;19908;-44
2022/05/15 00:46:00;;;;;;;;;;;;;;;;;;5068194;28;19919;-45
2022/05/15 00:48:26;;;;;;;;;;;;;;;;;;5068555;28;19912;-45
2022/05/15 00:50:52;;;;;;;;;;;;;;;;;;5068114;28;19989;-45
2022/05/15 00:53:18;;;;;;;;;;;;;;;;;;5068297;28;19931;-48
2022/05/15 00:55:44;;;;;;;;;;;;;;;;;;5067424;28;19916;-46
2022/05/15 00:58:10;;;;;;;;;;;;;;;;;;5068166;28;20307;-45
2022/05/15 01:00:36;;;;;;;;;;;;;;;;;;5067031;28;19908;-44
2022/05/15 01:03:02;;;;;;;;;;;;;;;;;;5068154;28;19908;-48
2022/05/15 01:05:28;;;;;;;;;;;;;;;;;;5067837;28;19911;-46
2022/05/15 01:07:54;;;;;;;;;;;;;;;;;;5067941;28;20023;-44
2022/05/15 01:10:20;;;;;;;;;;;;;;;;;;5067777;28;19908;-45
2022/05/15 01:12:48;;;;;;;;;;;;;;;;;;5067686;28;19904;-44
2022/05/15 01:15:14;;;;;;;;;;;;;;;;;;5067998;28;19910;-46
2022/05/15 01:17:40;;;;;;;;;;;;;;;;;;5065550;28;19948;-47
2022/05/15 01:20:06;;;;;;;;;;;;;;;;;;5067981;28;19943;-43
2022/05/15 01:22:32;;;;;;;;;;;;;;;;;;5066678;28;19978;-45
2022/05/15 01:24:58;;;;;;;;;;;;;;;;;;5068390;28;19904;-44
2022/05/15 01:27:24;;;;;;;;;;;;;;;;;;5066959;28;19912;-47
2022/05/15 01:29:50;;;;;;;;;;;;;;;;;;5067485;28;19935;-46
2022/05/15 01:32:16;;;;;;;;;;;;;;;;;;5067564;28;20014;-44
2022/05/15 01:34:42;;;;;;;;;;;;;;;;;;5067410;28;19915;-46
2022/05/15 01:37:07;;;;;;;;;;;;;;;;;;5066639;28;20357;-45
2022/05/15 01:39:33;;;;;;;;;;;;;;;;;;5067308;28;19915;-44
2022/05/15 01:41:59;;;;;;;;;;;;;;;;;;5067779;28;19912;-43
2022/05/15 01:44:25;;;;;;;;;;;;;;;;;;5066871;28;20024;-44
2022/05/15 01:46:51;;;;;;;;;;;;;;;;;;5065757;28;19913;-44
2022/05/15 01:49:17;;;;;;;;;;;;;;;;;;5067428;28;19908;-44
2022/05/15 01:51:43;;;;;;;;;;;;;;;;;;5067176;28;19957;-44
2022/05/15 01:54:09;;;;;;;;;;;;;;;;;;5066307;28;20006;-47
2022/05/15 01:56:36;;;;;;;;;;;;;;;;;;5066106;28;19915;-44
2022/05/15 01:59:02;;;;;;;;;;;;;;;;;;5066989;28;20001;-46
2022/05/15 02:01:27;;;;;;;;;;;;;;;;;;5065379;28;19970;-46
2022/05/15 02:03:53;;;;;;;;;;;;;;;;;;5066857;28;19916;-44
2022/05/15 02:06:19;;;;;;;;;;;;;;;;;;5066111;28;19908;-45
2022/05/15 02:08:46;;;;;;;;;;;;;;;;;;5066879;28;19908;-44
2022/05/15 02:11:12;;;;;;;;;;;;;;;;;;5066598;28;20320;-43
2022/05/15 02:13:37;;;;;;;;;;;;;;;;;;5066664;28;19994;-44
2022/05/15 02:16:03;;;;;;;;;;;;;;;;;;5064857;28;19904;-47
2022/05/15 02:18:29;;;;;;;;;;;;;;;;;;5067548;28;19912;-46
2022/05/15 02:20:55;;;;;;;;;;;;;;;;;;5066982;28;19977;-43
2022/05/15 02:23:22;;;;;;;;;;;;;;;;;;5066837;28;19958;-44
2022/05/15 02:25:48;;;;;;;;;;;;;;;;;;5065409;28;20286;-46
2022/05/15 02:28:14;;;;;;;;;;;;;;;;;;5062984;28;19913;-46
2022/05/15 02:30:40;;;;;;;;;;;;;;;;;;5066359;28;19908;-47
2022/05/15 02:33:06;;;;;;;;;;;;;;;;;;5066699;28;19905;-45
2022/05/15 02:35:32;;;;;;;;;;;;;;;;;;5066378;28;19915;-46
2022/05/15 02:37:58;;;;;;;;;;;;;;;;;;5065460;28;19954;-43
2022/05/15 02:40:24;;;;;;;;;;;;;;;;;;5065435;28;20085;-44
2022/05/15 02:42:53;;;;;;;;;;;;;;;;;;5064292;28;19966;-44
2022/05/15 02:45:18;;;;;;;;;;;;;;;;;;5066465;28;19911;-44
2022/05/15 02:47:45;;;;;;;;;;;;;;;;;;5066198;28;19908;-46
2022/05/15 02:52:56;;;;;;;;;;;;;;;;;;5065479;28;19926;-43
2022/05/15 02:55:21;;;;;;;;;;;;;;;;;;5066082;28;20006;-46
2022/05/15 02:57:48;;;;;;;;;;;;;;;;;;5066022;28;19914;-44
2022/05/15 03:00:13;;;;;;;;;;;;;;;;;;5066251;28;19931;-46
2022/05/15 03:02:39;;;;;;;;;;;;;;;;;;5065124;28;19908;-44
2022/05/15 03:05:05;;;;;;;;;;;;;;;;;;5064482;28;19912;-44
2022/05/15 03:07:31;;;;;;;;;;;;;;;;;;5065498;28;19939;-43
2022/05/15 03:09:57;;;;;;;;;;;;;;;;;;5065552;28;19934;-43
2022/05/15 03:12:23;;;;;;;;;;;;;;;;;;5045737;28;19908;-44
2022/05/15 03:14:49;;;;;;;;;;;;;;;;;;5043236;28;20221;-43
2022/05/15 03:17:17;;;;;;;;;;;;;;;;;;5043307;28;19991;-45
2022/05/15 03:19:43;;;;;;;;;;;;;;;;;;5044371;28;19916;-43
2022/05/15 03:22:09;;;;;;;;;;;;;;;;;;5044410;28;20197;-45
2022/05/15 03:24:36;;;;;;;;;;;;;;;;;;5047393;28;19904;-43
2022/05/15 03:27:02;;;;;;;;;;;;;;;;;;5048227;28;20279;-43
2022/05/15 03:29:28;;;;;;;;;;;;;;;;;;5048893;28;19915;-44
2022/05/15 03:31:54;;;;;;;;;;;;;;;;;;5048066;28;19909;-43
2022/05/15 03:34:19;;;;;;;;;;;;;;;;;;5048337;28;19936;-43
2022/05/15 03:36:46;;;;;;;;;;;;;;;;;;5048085;28;19905;-44
2022/05/15 03:39:13;;;;;;;;;;;;;;;;;;5048089;28;19915;-45
2022/05/15 03:41:39;;;;;;;;;;;;;;;;;;5047824;28;19912;-45
2022/05/15 03:44:05;;;;;;;;;;;;;;;;;;5048236;28;19909;-43
2022/05/15 03:46:32;;;;;;;;;;;;;;;;;;5047933;28;20113;-43
2022/05/15 03:48:58;;;;;;;;;;;;;;;;;;5048736;28;20410;-46
2022/05/15 03:51:24;;;;;;;;;;;;;;;;;;5047977;28;19909;-43
2022/05/15 03:53:50;;;;;;;;;;;;;;;;;;5047761;28;20449;-43
2022/05/15 03:56:16;;;;;;;;;;;;;;;;;;5047628;28;19905;-43
2022/05/15 03:58:42;;;;;;;;;;;;;;;;;;5047437;28;20417;-43
2022/05/15 04:01:08;;;;;;;;;;;;;;;;;;5047570;28;20399;-43
2022/05/15 04:03:35;;;;;;;;;;;;;;;;;;5048039;28;19999;-47
2022/05/15 04:06:02;;;;;;;;;;;;;;;;;;5047767;28;19905;-44
2022/05/15 04:08:28;;;;;;;;;;;;;;;;;;5048452;28;19990;-44
2022/05/15 04:10:55;;;;;;;;;;;;;;;;;;5047176;28;20407;-44
2022/05/15 04:13:23;;;;;;;;;;;;;;;;;;5047725;28;19909;-43
2022/05/15 04:15:50;;;;;;;;;;;;;;;;;;5047453;28;19911;-42
2022/05/15 04:18:16;;;;;;;;;;;;;;;;;;5047500;28;19904;-45
2022/05/15 04:20:42;;;;;;;;;;;;;;;;;;5047178;28;19915;-44
2022/05/15 04:23:09;;;;;;;;;;;;;;;;;;5047541;28;19909;-44
2022/05/15 04:25:36;;;;;;;;;;;;;;;;;;5047115;28;20367;-42
2022/05/15 04:28:03;;;;;;;;;;;;;;;;;;5047377;28;19912;-44
2022/05/15 04:30:29;;;;;;;;;;;;;;;;;;5047666;28;19951;-44
2022/05/15 04:32:55;;;;;;;;;;;;;;;;;;5047457;28;19951;-44
2022/05/15 04:35:21;;;;;;;;;;;;;;;;;;5047002;28;20387;-44
2022/05/15 04:37:47;;;;;;;;;;;;;;;;;;5047192;28;19912;-45
2022/05/15 04:40:14;;;;;;;;;;;;;;;;;;5046612;28;20276;-44
2022/05/15 04:42:40;;;;;;;;;;;;;;;;;;5046994;28;19994;-44
2022/05/15 04:45:06;;;;;;;;;;;;;;;;;;5047090;28;20054;-44
2022/05/15 04:47:32;;;;;;;;;;;;;;;;;;5046752;28;20356;-43
2022/05/15 04:49:58;;;;;;;;;;;;;;;;;;5047794;28;19909;-44
2022/05/15 04:52:25;;;;;;;;;;;;;;;;;;5046772;28;20418;-44
2022/05/15 04:54:51;;;;;;;;;;;;;;;;;;5046157;28;19916;-43
2022/05/15 04:57:17;;;;;;;;;;;;;;;;;;5046683;28;19909;-43
2022/05/15 04:59:43;;;;;;;;;;;;;;;;;;5046344;28;19909;-43
2022/05/15 05:02:09;;;;;;;;;;;;;;;;;;5046608;28;19912;-43
2022/05/15 05:04:35;;;;;;;;;;;;;;;;;;5046465;28;19909;-43
2022/05/15 05:07:01;;;;;;;;;;;;;;;;;;5046855;28;20303;-42
2022/05/15 05:09:27;;;;;;;;;;;;;;;;;;5046692;28;19905;-43
2022/05/15 05:11:53;;;;;;;;;;;;;;;;;;5046175;28;19905;-42
2022/05/15 05:14:19;;;;;;;;;;;;;;;;;;5046735;28;20365;-43
2022/05/15 05:16:46;;;;;;;;;;;;;;;;;;5046211;28;19904;-43
2022/05/15 05:19:12;;;;;;;;;;;;;;;;;;5046178;28;19908;-42
2022/05/15 05:21:38;;;;;;;;;;;;;;;;;;5046141;28;19909;-43
2022/05/15 05:24:04;;;;;;;;;;;;;;;;;;5054216;28;19970;-42
2022/05/15 05:26:30;;;;;;;;;;;;;;;;;;5055081;28;19987;-42
2022/05/15 05:28:56;;;;;;;;;;;;;;;;;;5054283;28;19908;-42
2022/05/15 05:31:22;;;;;;;;;;;;;;;;;;5067290;28;19905;-42
2022/05/15 05:33:48;;;;;;;;;;;;;;;;;;5067108;28;19908;-43
2022/05/15 05:36:14;;;;;;;;;;;;;;;;;;5067576;28;20010;-43
2022/05/15 05:38:40;;;;;;;;;;;;;;;;;;5067095;28;19994;-42
2022/05/15 05:41:06;;;;;;;;;;;;;;;;;;5066949;28;19908;-43
2022/05/15 05:43:32;;;;;;;;;;;;;;;;;;5067181;28;19904;-42
2022/05/15 05:45:59;;;;;;;;;;;;;;;;;;5085660;28;19908;-43
2022/05/15 05:48:26;;;;;;;;;;;;;;;;;;5075488;28;20503;-42
2022/05/15 05:50:51;;;;;;;;;;;;;;;;;;5067707;28;19935;-42
2022/05/15 05:53:17;;;;;;;;;;;;;;;;;;5067608;28;20391;-42
2022/05/15 05:55:43;;;;;;;;;;;;;;;;;;5065903;28;19912;-43
2022/05/15 05:58:10;;;;;;;;;;;;;;;;;;5066933;28;20452;-43
2022/05/15 06:00:37;;;;;;;;;;;;;;;;;;5067206;28;20011;-43
2022/05/15 06:05:48;;;;;;;;;;;;;;;;;;5067102;28;19985;-43
2022/05/15 06:08:14;;;;;;;;;;;;;;;;;;5067216;28;20641;-46
2022/05/15 06:10:40;;;;;;;;;;;;;;;;;;5067016;28;19908;-42
2022/05/15 06:13:06;;;;;;;;;;;;;;;;;;5067057;28;19914;-44
2022/05/15 06:15:32;;;;;;;;;;;;;;;;;;5066364;28;20005;-44
2022/05/15 06:17:58;;;;;;;;;;;;;;;;;;5067688;28;19904;-43
2022/05/15 06:20:25;;;;;;;;;;;;;;;;;;5066091;28;20151;-43
2022/05/15 06:22:51;;;;;;;;;;;;;;;;;;5065495;28;20013;-44
2022/05/15 06:25:17;;;;;;;;;;;;;;;;;;5065613;28;19943;-44
2022/05/15 06:27:42;;;;;;;;;;;;;;;;;;5065312;28;19910;-47
2022/05/15 06:30:08;;;;;;;;;;;;;;;;;;5065524;28;20371;-44
2022/05/15 06:32:34;;;;;;;;;;;;;;;;;;5065267;28;19908;-47
2022/05/15 06:35:00;;;;;;;;;;;;;;;;;;5065798;28;20440;-43
2022/05/15 06:37:26;;;;;;;;;;;;;;;;;;5065911;28;20058;-44
2022/05/15 06:39:52;;;;;;;;;;;;;;;;;;5065247;28;20383;-44
2022/05/15 06:42:18;;;;;;;;;;;;;;;;;;5065251;28;20302;-47
2022/05/15 06:44:44;;;;;;;;;;;;;;;;;;5065722;28;19959;-46
2022/05/15 06:47:11;;;;;;;;;;;;;;;;;;5065392;28;19905;-44
2022/05/15 06:49:37;;;;;;;;;;;;;;;;;;5065033;28;19978;-46
2022/05/15 06:52:02;;;;;;;;;;;;;;;;;;5064952;28;19912;-47
2022/05/15 06:54:28;;;;;;;;;;;;;;;;;;5065784;28;19920;-43
2022/05/15 06:59:39;;;;;;;;;;;;;;;;;;5069139;28;19911;-45
2022/05/15 07:02:05;;;;;;;;;;;;;;;;;;5072968;28;19927;-44
2022/05/15 07:04:31;;;;;;;;;;;;;;;;;;5068627;28;19908;-42
2022/05/15 07:06:57;;;;;;;;;;;;;;;;;;5069517;28;19920;-44
2022/05/15 07:09:23;;;;;;;;;;;;;;;;;;5069879;28;19954;-44
2022/05/15 07:11:48;;;;;;;;;;;;;;;;;;5067158;28;20448;-43
2022/05/15 07:14:15;;;;;;;;;;;;;;;;;;5070126;28;20303;-46
2022/05/15 07:16:41;;;;;;;;;;;;;;;;;;5070111;28;20034;-43
2022/05/15 07:19:07;;;;;;;;;;;;;;;;;;5069943;28;20426;-45
2022/05/15 07:21:33;;;;;;;;;;;;;;;;;;5069656;28;19915;-45
2022/05/15 07:23:59;;;;;;;;;;;;;;;;;;5070923;28;20267;-44
2022/05/15 07:26:25;;;;;;;;;;;;;;;;;;5069707;28;19908;-47
2022/05/15 07:28:51;;;;;;;;;;;;;;;;;;5069709;28;20005;-46
2022/05/15 07:31:18;;;;;;;;;;;;;;;;;;5069799;28;19908;-46
2022/05/15 07:33:44;;;;;;;;;;;;;;;;;;5069701;28;19908;-45
2022/05/15 07:36:11;;;;;;;;;;;;;;;;;;5068848;28;20329;-44
2022/05/15 07:38:38;;;;;;;;;;;;;;;;;;5069443;28;19908;-45
2022/05/15 07:41:05;;;;;;;;;;;;;;;;;;5069856;28;20397;-45
2022/05/15 07:43:31;;;;;;;;;;;;;;;;;;5069675;28;20004;-43
2022/05/15 07:45:56;;;;;;;;;;;;;;;;;;5067273;28;20002;-45
2022/05/15 07:48:22;;;;;;;;;;;;;;;;;;5064554;28;19918;-45
2022/05/15 07:50:48;;;;;;;;;;;;;;;;;;5069201;28;20372;-45
2022/05/15 07:53:14;;;;;;;;;;;;;;;;;;5069765;28;19938;-45
2022/05/15 07:55:40;;;;;;;;;;;;;;;;;;5069335;28;20295;-46
2022/05/15 07:58:06;;;;;;;;;;;;;;;;;;5068910;28;19991;-44
2022/05/15 08:00:32;;;;;;;;;;;;;;;;;;5069231;28;20337;-45
2022/05/15 08:02:59;;;;;;;;;;;;;;;;;;5070025;28;19908;-45
2022/05/15 08:08:10;;;;;;;;;;;;;;;;;;5064746;28;20445;-44
2022/05/15 08:10:36;;;;;;;;;;;;;;;;;;5067734;28;19951;-43
2022/05/15 08:13:03;;;;;;;;;;;;;;;;;;5067884;28;19940;-46
2022/05/15 08:15:30;;;;;;;;;;;;;;;;;;5069314;28;19962;-45
2022/05/15 08:23:33;;;;;;;;;;;;;;;;;;5069264;28;19905;-43
2022/05/15 08:23:38;;;;;;;;;;;;;;;;;;5069524;28;19916;-44
2022/05/15 08:26:05;;;;;;;;;;;;;;;;;;5069089;28;19916;-44
2022/05/15 08:28:31;;;;;;;;;;;;;;;;;;5069193;28;19999;-42
2022/05/15 08:30:58;;;;;;;;;;;;;;;;;;5069481;28;20015;-45
2022/05/15 08:33:24;;;;;;;;;;;;;;;;;;5068870;28;19904;-43
2022/05/15 08:35:50;;;;;;;;;;;;;;;;;;5068439;28;20405;-44
2022/05/15 08:38:16;;;;;;;;;;;;;;;;;;5068424;28;19955;-44
2022/05/15 08:40:43;;;;;;;;;;;;;;;;;;5067369;28;20372;-44
2022/05/15 08:43:10;;;;;;;;;;;;;;;;;;5068501;28;20334;-43
2022/05/15 08:45:36;;;;;;;;;;;;;;;;;;5068297;28;20284;-44
2022/05/15 08:48:02;;;;;;;;;;;;;;;;;;5068426;28;19904;-43
2022/05/15 08:50:29;;;;;;;;;;;;;;;;;;5068892;28;19936;-44
2022/05/15 08:52:55;;;;;;;;;;;;;;;;;;5068531;28;19912;-43
2022/05/15 08:55:21;;;;;;;;;;;;;;;;;;5068540;28;20814;-44
2022/05/15 08:57:47;;;;;;;;;;;;;;;;;;5066086;28;20011;-43
2022/05/15 09:00:13;;;;;;;;;;;;;;;;;;5067074;28;20541;-43
2022/05/15 09:02:40;;;;;;;;;;;;;;;;;;5066772;28;19919;-43
2022/05/15 09:05:06;;;;;;;;;;;;;;;;;;5067155;28;19915;-43
2022/05/15 09:07:33;;;;;;;;;;;;;;;;;;5065728;28;19909;-44
2022/05/15 09:09:59;;;;;;;;;;;;;;;;;;5066146;28;19947;-44
2022/05/15 09:12:26;;;;;;;;;;;;;;;;;;5065785;28;20335;-44
2022/05/15 09:14:53;;;;;;;;;;;;;;;;;;5066820;28;20010;-44
2022/05/15 09:17:21;;;;;;;;;;;;;;;;;;5065834;28;19949;-43
2022/05/15 09:19:47;;;;;;;;;;;;;;;;;;5065843;28;19920;-43
2022/05/15 09:22:13;;;;;;;;;;;;;;;;;;5065730;28;20232;-43
2022/05/15 09:24:39;;;;;;;;;;;;;;;;;;5066471;28;20381;-43
2022/05/15 09:27:05;;;;;;;;;;;;;;;;;;5067425;28;19919;-43
2022/05/15 09:29:31;;;;;;;;;;;;;;;;;;5068180;28;20004;-43
2022/05/15 09:31:57;;;;;;;;;;;;;;;;;;5068383;28;19913;-43
2022/05/15 09:34:23;;;;;;;;;;;;;;;;;;5067683;28;19943;-44
2022/05/15 09:36:49;;;;;;;;;;;;;;;;;;5066928;28;19909;-43
2022/05/15 09:39:15;;;;;;;;;;;;;;;;;;5066723;28;19919;-44
2022/05/15 09:44:27;;;;;;;;;;;;;;;;;;5067022;28;20405;-44
2022/05/15 09:46:53;;;;;;;;;;;;;;;;;;5066096;28;19908;-45
2022/05/15 09:49:20;;;;;;;;;;;;;;;;;;5066421;28;19908;-43
2022/05/15 09:51:47;;;;;;;;;;;;;;;;;;5066465;28;20276;-44
2022/05/15 09:54:13;;;;;;;;;;;;;;;;;;5018010;28;1386031;-47
2022/05/15 09:56:39;;;;;;;;;;;;;;;;;;5066726;28;19999;-44
2022/05/15 09:59:05;;;;;;;;;;;;;;;;;;5066748;28;19904;-44
2022/05/15 10:01:31;;;;;;;;;;;;;;;;;;5066443;28;19912;-43
2022/05/15 10:03:58;;;;;;;;;;;;;;;;;;5067629;28;20414;-44
2022/05/15 10:06:24;;;;;;;;;;;;;;;;;;5066770;28;19923;-44
2022/05/15 10:08:50;;;;;;;;;;;;;;;;;;5065974;28;19912;-44
2022/05/15 10:11:17;;;;;;;;;;;;;;;;;;5065535;28;20374;-48
2022/05/15 10:13:44;;;;;;;;;;;;;;;;;;5066680;28;19966;-44
2022/05/15 10:16:09;;;;;;;;;;;;;;;;;;5066261;28;19951;-44
2022/05/15 10:18:35;;;;;;;;;;;;;;;;;;5066713;28;19947;-44
2022/05/15 10:21:01;;;;;;;;;;;;;;;;;;5066577;28;20318;-46
2022/05/15 10:23:28;;;;;;;;;;;;;;;;;;5067160;28;19908;-44
2022/05/15 10:25:54;;;;;;;;;;;;;;;;;;5066592;28;19916;-45
2022/05/15 10:28:21;;;;;;;;;;;;;;;;;;5065530;28;19958;-44
2022/05/15 10:30:47;;;;;;;;;;;;;;;;;;5065529;28;19908;-44
2022/05/15 10:33:13;;;;;;;;;;;;;;;;;;5065811;28;19991;-45
2022/05/15 10:35:39;;;;;;;;;;;;;;;;;;5066180;28;20344;-45
2022/05/15 10:38:05;;;;;;;;;;;;;;;;;;5066443;28;19991;-45
2022/05/15 10:40:32;;;;;;;;;;;;;;;;;;5065918;28;19999;-47
2022/05/15 10:42:59;;;;;;;;;;;;;;;;;;5066749;28;20370;-45
2022/05/15 10:45:25;;;;;;;;;;;;;;;;;;5065594;28;19932;-48
2022/05/15 10:47:51;;;;;;;;;;;;;;;;;;5066227;28;19908;-44
2022/05/15 10:50:18;;;;;;;;;;;;;;;;;;5066362;28;20463;-44
2022/05/15 10:52:44;;;;;;;;;;;;;;;;;;5066124;28;19919;-44
2022/05/15 10:57:55;;;;;;;;;;;;;;;;;;5065524;28;19974;-44
2022/05/15 11:00:21;;;;;;;;;;;;;;;;;;5066114;28;20702;-46
2022/05/15 11:02:47;;;;;;;;;;;;;;;;;;5066258;28;19943;-45
2022/05/15 11:05:13;;;;;;;;;;;;;;;;;;5066044;28;19911;-46
2022/05/15 11:07:39;;;;;;;;;;;;;;;;;;5065781;28;19936;-44
2022/05/15 11:10:06;;;;;;;;;;;;;;;;;;5065063;28;19908;-44
2022/05/15 11:12:33;;;;;;;;;;;;;;;;;;5055575;28;19915;-47
2022/05/15 11:14:59;;;;;;;;;;;;;;;;;;5053680;28;20395;-48
2022/05/15 11:17:25;;;;;;;;;;;;;;;;;;5065196;28;19975;-45
2022/05/15 11:19:51;;;;;;;;;;;;;;;;;;5064190;28;19909;-47
2022/05/15 11:22:18;;;;;;;;;;;;;;;;;;5066011;28;20336;-45
2022/05/15 11:24:44;;;;;;;;;;;;;;;;;;5066024;28;19904;-45
2022/05/15 11:27:11;;;;;;;;;;;;;;;;;;5065920;28;19905;-45
2022/05/15 11:29:36;;;;;;;;;;;;;;;;;;5065050;28;19916;-44
2022/05/15 11:32:02;;;;;;;;;;;;;;;;;;5066024;28;19951;-45
2022/05/15 11:34:28;;;;;;;;;;;;;;;;;;5064865;28;20322;-45
2022/05/15 11:36:55;;;;;;;;;;;;;;;;;;5065539;28;19923;-48
2022/05/15 11:39:22;;;;;;;;;;;;;;;;;;5065477;28;20010;-44
2022/05/15 11:44:32;;;;;;;;;;;;;;;;;;5066597;28;20340;-47
2022/05/15 11:46:58;;;;;;;;;;;;;;;;;;5069504;28;19912;-45
2022/05/15 11:49:24;;;;;;;;;;;;;;;;;;5068697;28;19917;-45
2022/05/15 11:51:51;;;;;;;;;;;;;;;;;;5066307;28;20443;-46
2022/05/15 11:54:17;;;;;;;;;;;;;;;;;;5068900;28;20302;-49
2022/05/15 11:56:42;;;;;;;;;;;;;;;;;;5069431;28;19905;-44
2022/05/15 11:59:08;;;;;;;;;;;;;;;;;;5068821;28;19904;-46
2022/05/15 12:01:35;;;;;;;;;;;;;;;;;;5069286;28;19950;-48
2022/05/15 12:04:01;;;;;;;;;;;;;;;;;;5069186;28;19904;-48
2022/05/15 12:06:27;;;;;;;;;;;;;;;;;;5068902;28;19904;-46
2022/05/15 12:08:53;;;;;;;;;;;;;;;;;;5068176;28;20367;-44
2022/05/15 12:11:19;;;;;;;;;;;;;;;;;;5066199;28;19912;-46
2022/05/15 12:13:45;;;;;;;;;;;;;;;;;;5067455;28;19916;-44
2022/05/15 12:16:12;;;;;;;;;;;;;;;;;;5069625;28;19904;-46
2022/05/15 12:18:39;;;;;;;;;;;;;;;;;;5068366;28;19951;-48
2022/05/15 12:21:05;;;;;;;;;;;;;;;;;;5068758;28;19959;-45
2022/05/15 12:23:31;;;;;;;;;;;;;;;;;;5068411;28;19940;-44
2022/05/15 12:25:57;;;;;;;;;;;;;;;;;;5068598;28;19900;-44
2022/05/15 12:31:08;;;;;;;;;;;;;;;;;;5068653;28;20310;-47
2022/05/15 12:33:40;;;;;;;;;;;;;;;;;;5069035;28;19916;-45
2022/05/15 12:36:06;;;;;;;;;;;;;;;;;;5069842;28;19908;-46
2022/05/15 12:38:32;;;;;;;;;;;;;;;;;;5068888;28;20378;-47
2022/05/15 12:40:59;;;;;;;;;;;;;;;;;;5069603;28;19912;-45
2022/05/15 12:43:25;;;;;;;;;;;;;;;;;;5069719;28;19934;-46
2022/05/15 12:45:51;;;;;;;;;;;;;;;;;;5068516;28;19909;-48
2022/05/15 12:48:17;;;;;;;;;;;;;;;;;;5068211;28;19904;-46
2022/05/15 12:50:44;;;;;;;;;;;;;;;;;;5067272;28;20371;-48
2022/05/15 12:53:10;;;;;;;;;;;;;;;;;;5048481;28;20518;-45
2022/05/15 12:55:36;;;;;;;;;;;;;;;;;;5058543;28;19916;-45
2022/05/15 12:58:07;;;;;;;;;;;;;;;;;;5067632;28;19912;-46
2022/05/15 13:00:34;;;;;;;;;;;;;;;;;;5066269;28;19904;-46
2022/05/15 13:03:00;;;;;;;;;;;;;;;;;;5068127;28;19915;-46
2022/05/15 13:05:26;;;;;;;;;;;;;;;;;;5067983;28;19908;-44
2022/05/15 13:07:51;;;;;;;;;;;;;;;;;;5067389;28;19905;-45
2022/05/15 13:10:17;;;;;;;;;;;;;;;;;;5076049;28;20413;-47
2022/05/15 13:12:43;;;;;;;;;;;;;;;;;;5067388;28;19915;-45
2022/05/15 13:15:09;;;;;;;;;;;;;;;;;;5066226;28;19908;-45
2022/05/15 13:17:36;;;;;;;;;;;;;;;;;;5067514;28;20020;-45
2022/05/15 13:20:02;;;;;;;;;;;;;;;;;;5067959;28;20306;-44
2022/05/15 13:22:33;;;;;;;;;;;;;;;;;;5066608;28;19908;-45
2022/05/15 13:24:59;;;;;;;;;;;;;;;;;;5067384;28;19919;-45
2022/05/15 13:27:26;;;;;;;;;;;;;;;;;;5066425;28;19912;-45
2022/05/15 13:29:52;;;;;;;;;;;;;;;;;;5064289;28;19908;-44
2022/05/15 13:32:18;;;;;;;;;;;;;;;;;;5081672;28;20299;-45
2022/05/15 13:34:47;;;;;;;;;;;;;;;;;;5066627;28;20378;-47
2022/05/15 13:37:13;;;;;;;;;;;;;;;;;;5066667;28;19951;-48
2022/05/15 13:45:08;;;;;;;;;;;;;;;;;;5065912;28;19943;-45
2022/05/15 13:47:34;;;;;;;;;;;;;;;;;;5066447;28;19912;-47
2022/05/15 13:50:01;;;;;;;;;;;;;;;;;;5066164;28;20690;-48
2022/05/15 13:52:27;;;;;;;;;;;;;;;;;;5066008;28;19908;-45
2022/05/15 13:54:53;;;;;;;;;;;;;;;;;;5065243;28;20314;-48
2022/05/15 13:57:19;;;;;;;;;;;;;;;;;;5065809;28;20030;-44
2022/05/15 13:59:45;;;;;;;;;;;;;;;;;;5065398;28;19912;-45
2022/05/15 14:02:11;;;;;;;;;;;;;;;;;;5065620;28;19916;-47
2022/05/15 14:04:39;;;;;;;;;;;;;;;;;;5065668;28;19958;-47
2022/05/15 14:07:05;;;;;;;;;;;;;;;;;;5052225;28;19916;-45
2022/05/15 14:09:30;;;;;;;;;;;;;;;;;;5065382;28;19930;-46
2022/05/15 14:11:59;;;;;;;;;;;;;;;;;;5065618;28;19916;-45
2022/05/15 14:14:25;;;;;;;;;;;;;;;;;;5065399;28;19916;-45
2022/05/15 14:16:51;;;;;;;;;;;;;;;;;;5065447;28;19920;-45
2022/05/15 14:19:17;;;;;;;;;;;;;;;;;;5065588;28;19908;-46
2022/05/15 14:21:44;;;;;;;;;;;;;;;;;;5065940;28;19912;-44
2022/05/15 14:24:10;;;;;;;;;;;;;;;;;;5064891;28;20283;-46
2022/05/15 14:26:37;;;;;;;;;;;;;;;;;;5065746;28;19916;-44
2022/05/15 14:29:04;;;;;;;;;;;;;;;;;;5065736;28;20375;-48
2022/05/15 14:31:32;;;;;;;;;;;;;;;;;;5064089;28;20379;-46
2022/05/15 14:33:57;;;;;;;;;;;;;;;;;;5064536;28;19912;-49
2022/05/15 14:36:24;;;;;;;;;;;;;;;;;;5065344;28;20003;-45
2022/05/15 14:38:49;;;;;;;;;;;;;;;;;;5064736;28;19912;-47
2022/05/15 14:41:15;;;;;;;;;;;;;;;;;;5081047;28;19919;-47
2022/05/15 14:43:41;;;;;;;;;;;;;;;;;;5065750;28;19916;-45
2022/05/15 14:46:07;;;;;;;;;;;;;;;;;;5065561;28;19908;-44
2022/05/15 14:48:33;;;;;;;;;;;;;;;;;;5065032;28;20444;-47
2022/05/15 14:50:59;;;;;;;;;;;;;;;;;;5064554;28;19916;-45
2022/05/15 14:53:25;;;;;;;;;;;;;;;;;;5064455;28;19916;-46
2022/05/15 14:56:09;;;;;;;;;;;;;;;;;;5065198;28;19920;-45
2022/05/15 14:58:35;;;;;;;;;;;;;;;;;;5064709;28;19991;-47
2022/05/15 15:01:02;;;;;;;;;;;;;;;;;;5065231;28;20011;-47
2022/05/15 15:03:28;;;;;;;;;;;;;;;;;;5064709;28;20073;-47
2022/05/15 15:05:55;;;;;;;;;;;;;;;;;;5064606;28;20430;-45
2022/05/15 15:08:22;;;;;;;;;;;;;;;;;;5064048;28;20386;-45
2022/05/15 15:10:48;;;;;;;;;;;;;;;;;;5064724;28;19908;-45
2022/05/15 15:13:13;;;;;;;;;;;;;;;;;;5065694;28;20271;-44
2022/05/15 15:15:39;;;;;;;;;;;;;;;;;;5062087;28;19923;-45
2022/05/15 15:18:05;;;;;;;;;;;;;;;;;;5065198;28;20473;-45
2022/05/15 15:20:32;;;;;;;;;;;;;;;;;;5082639;28;19909;-45
2022/05/15 15:22:58;;;;;;;;;;;;;;;;;;5066710;28;19949;-48
2022/05/15 15:25:24;;;;;;;;;;;;;;;;;;5068987;28;20007;-46
2022/05/15 15:27:50;;;;;;;;;;;;;;;;;;5062533;28;20068;-44
2022/05/15 15:30:15;;;;;;;;;;;;;;;;;;5049776;28;19905;-45
2022/05/15 15:32:41;;;;;;;;;;;;;;;;;;5055318;28;19965;-45
2022/05/15 15:35:07;;;;;;;;;;;;;;;;;;5067459;28;19915;-45
2022/05/15 15:40:18;;;;;;;;;;;;;;;;;;5064961;28;19911;-47
2022/05/15 15:42:45;;;;;;;;;;;;;;;;;;5058236;28;20306;-45
2022/05/15 15:45:11;;;;;;;;;;;;;;;;;;5068596;28;20276;-45
2022/05/15 15:47:37;;;;;;;;;;;;;;;;;;5068285;28;19934;-48
2022/05/15 15:50:03;;;;;;;;;;;;;;;;;;5068661;28;19904;-45
2022/05/15 15:52:30;;;;;;;;;;;;;;;;;;5068256;28;20427;-48
2022/05/15 15:54:57;;;;;;;;;;;;;;;;;;5068439;28;20422;-47
2022/05/15 15:57:23;;;;;;;;;;;;;;;;;;5067932;28;19915;-46
2022/05/15 15:59:49;;;;;;;;;;;;;;;;;;5066587;28;19912;-48
2022/05/15 16:02:15;;;;;;;;;;;;;;;;;;5067458;28;19912;-45
2022/05/15 16:04:41;;;;;;;;;;;;;;;;;;5065231;28;19908;-45
2022/05/15 16:07:07;;;;;;;;;;;;;;;;;;5067584;28;20011;-45
2022/05/15 16:09:36;;;;;;;;;;;;;;;;;;5068426;28;20355;-45
2022/05/15 16:12:03;;;;;;;;;;;;;;;;;;5067754;28;19913;-45
2022/05/15 16:14:30;;;;;;;;;;;;;;;;;;5068939;28;19917;-46
2022/05/15 16:16:56;;;;;;;;;;;;;;;;;;5060823;28;20508;-45
2022/05/15 16:19:21;;;;;;;;;;;;;;;;;;5069165;28;20014;-45
2022/05/15 16:21:48;;;;;;;;;;;;;;;;;;5067845;28;19912;-47
2022/05/15 16:24:14;;;;;;;;;;;;;;;;;;5070076;28;19995;-45
2022/05/15 16:26:40;;;;;;;;;;;;;;;;;;5068872;28;20431;-45
2022/05/15 16:29:05;;;;;;;;;;;;;;;;;;5069182;28;19908;-46
2022/05/15 16:31:31;;;;;;;;;;;;;;;;;;5066287;28;19949;-48
2022/05/15 16:33:57;;;;;;;;;;;;;;;;;;5065374;28;19912;-44
2022/05/15 16:36:23;;;;;;;;;;;;;;;;;;5068725;28;19917;-48
2022/05/15 16:38:49;;;;;;;;;;;;;;;;;;5068147;28;19912;-47
2022/05/15 16:41:15;;;;;;;;;;;;;;;;;;5067403;28;19995;-45
2022/05/15 16:43:41;;;;;;;;;;;;;;;;;;5072289;28;19908;-48
2022/05/15 16:46:07;;;;;;;;;;;;;;;;;;5074704;28;19913;-45
2022/05/15 16:48:33;;;;;;;;;;;;;;;;;;5068203;28;20413;-45
2022/05/15 16:51:04;;;;;;;;;;;;;;;;;;5067688;28;19908;-47
2022/05/15 16:53:30;;;;;;;;;;;;;;;;;;5083311;28;19938;-46
2022/05/15 16:55:55;;;;;;;;;;;;;;;;;;5064165;28;20369;-45
2022/05/15 16:58:21;;;;;;;;;;;;;;;;;;5066282;28;19962;-44
2022/05/15 17:00:47;;;;;;;;;;;;;;;;;;5067801;28;19925;-47
2022/05/15 17:03:13;;;;;;;;;;;;;;;;;;5065231;28;20046;-45
2022/05/15 17:05:39;;;;;;;;;;;;;;;;;;5065085;28;19918;-46
2022/05/15 17:08:05;;;;;;;;;;;;;;;;;;5064968;28;19908;-46
2022/05/15 17:10:31;;;;;;;;;;;;;;;;;;5081273;28;19985;-46
2022/05/15 17:12:58;;;;;;;;;;;;;;;;;;5065119;28;19994;-45